sensor_id;sensor_type;location;lat;lon;timestamp;temperature;humidity
47618;DHT22;33336;36.728;-4.414;2023-03-13T00:00:45;19.50;94.20
47618;DHT22;33336;36.728;-4.414;2023-03-13T00:05:48;19.50;94.20
47618;DHT22;33336;36.728;-4.414;2023-03-13T00:10:53;19.40;94.20
47618;DHT22;33336;36.728;-4.414;2023-03-13T00:15:59;19.50;94.20
47618;DHT22;33336;36.728;-4.414;2023-03-13T00:21:05;19.40;94.40
47618;DHT22;33336;36.728;-4.414;2023-03-13T00:26:11;19.50;94.20
47618;DHT22;33336;36.728;-4.414;2023-03-13T00:31:16;19.10;94.80
47618;DHT22;33336;36.728;-4.414;2023-03-13T00:36:22;19.20;94.60
47618;DHT22;33336;36.728;-4.414;2023-03-13T00:41:28;19.30;94.30
47618;DHT22;33336;36.728;-4.414;2023-03-13T00:46:32;18.90;94.80
47618;DHT22;33336;36.728;-4.414;2023-03-13T00:51:35;18.80;95.10
47618;DHT22;33336;36.728;-4.414;2023-03-13T00:56:41;19.00;94.80
47618;DHT22;33336;36.728;-4.414;2023-03-13T01:01:43;19.10;94.60
47618;DHT22;33336;36.728;-4.414;2023-03-13T01:06:47;19.00;94.80
47618;DHT22;33336;36.728;-4.414;2023-03-13T01:11:51;19.00;94.70
47618;DHT22;33336;36.728;-4.414;2023-03-13T01:16:55;18.90;94.70
47618;DHT22;33336;36.728;-4.414;2023-03-13T01:21:58;18.70;94.90
47618;DHT22;33336;36.728;-4.414;2023-03-13T01:27:04;18.80;94.80
47618;DHT22;33336;36.728;-4.414;2023-03-13T01:32:07;18.90;94.80
47618;DHT22;33336;36.728;-4.414;2023-03-13T01:37:09;18.70;95.00
47618;DHT22;33336;36.728;-4.414;2023-03-13T01:42:14;18.50;95.30
47618;DHT22;33336;36.728;-4.414;2023-03-13T01:47:18;18.60;95.30
47618;DHT22;33336;36.728;-4.414;2023-03-13T01:52:23;18.50;95.50
47618;DHT22;33336;36.728;-4.414;2023-03-13T01:57:31;18.60;95.30
47618;DHT22;33336;36.728;-4.414;2023-03-13T02:02:35;18.40;95.40
47618;DHT22;33336;36.728;-4.414;2023-03-13T02:07:43;18.30;95.60
47618;DHT22;33336;36.728;-4.414;2023-03-13T02:12:48;18.40;95.50
47618;DHT22;33336;36.728;-4.414;2023-03-13T02:17:52;18.50;95.30
47618;DHT22;33336;36.728;-4.414;2023-03-13T02:23:01;18.50;95.40
47618;DHT22;33336;36.728;-4.414;2023-03-13T02:28:10;18.50;95.30
47618;DHT22;33336;36.728;-4.414;2023-03-13T02:33:14;18.50;95.60
47618;DHT22;33336;36.728;-4.414;2023-03-13T02:38:20;18.40;95.30
47618;DHT22;33336;36.728;-4.414;2023-03-13T02:43:29;17.70;96.10
47618;DHT22;33336;36.728;-4.414;2023-03-13T02:48:36;17.70;96.30
47618;DHT22;33336;36.728;-4.414;2023-03-13T02:53:40;17.90;96.10
47618;DHT22;33336;36.728;-4.414;2023-03-13T02:58:46;18.10;95.90
47618;DHT22;33336;36.728;-4.414;2023-03-13T03:03:49;17.60;96.40
47618;DHT22;33336;36.728;-4.414;2023-03-13T03:08:53;17.70;96.20
47618;DHT22;33336;36.728;-4.414;2023-03-13T03:13:57;17.70;96.10
47618;DHT22;33336;36.728;-4.414;2023-03-13T03:19:01;17.70;95.90
47618;DHT22;33336;36.728;-4.414;2023-03-13T03:24:04;17.80;95.80
47618;DHT22;33336;36.728;-4.414;2023-03-13T03:29:10;17.60;95.90
47618;DHT22;33336;36.728;-4.414;2023-03-13T03:34:13;17.70;96.00
47618;DHT22;33336;36.728;-4.414;2023-03-13T03:39:17;17.90;96.00
47618;DHT22;33336;36.728;-4.414;2023-03-13T03:44:21;17.90;95.90
47618;DHT22;33336;36.728;-4.414;2023-03-13T03:49:25;17.80;95.50
47618;DHT22;33336;36.728;-4.414;2023-03-13T03:54:28;17.50;95.70
47618;DHT22;33336;36.728;-4.414;2023-03-13T03:59:33;17.40;96.10
47618;DHT22;33336;36.728;-4.414;2023-03-13T04:04:36;17.40;96.20
47618;DHT22;33336;36.728;-4.414;2023-03-13T04:09:40;17.60;96.00
47618;DHT22;33336;36.728;-4.414;2023-03-13T04:14:44;17.60;96.10
47618;DHT22;33336;36.728;-4.414;2023-03-13T04:19:48;17.70;95.70
47618;DHT22;33336;36.728;-4.414;2023-03-13T04:24:50;17.70;95.70
47618;DHT22;33336;36.728;-4.414;2023-03-13T04:29:56;17.60;95.70
47618;DHT22;33336;36.728;-4.414;2023-03-13T04:34:58;17.40;96.00
47618;DHT22;33336;36.728;-4.414;2023-03-13T04:40:03;17.20;96.20
47618;DHT22;33336;36.728;-4.414;2023-03-13T04:45:10;17.30;96.10
47618;DHT22;33336;36.728;-4.414;2023-03-13T04:50:15;17.40;96.10
47618;DHT22;33336;36.728;-4.414;2023-03-13T04:55:18;17.30;96.20
47618;DHT22;33336;36.728;-4.414;2023-03-13T05:00:23;17.00;96.70
47618;DHT22;33336;36.728;-4.414;2023-03-13T05:05:26;16.90;96.50
47618;DHT22;33336;36.728;-4.414;2023-03-13T05:10:30;17.20;96.10
47618;DHT22;33336;36.728;-4.414;2023-03-13T05:15:34;17.30;95.90
47618;DHT22;33336;36.728;-4.414;2023-03-13T05:20:38;16.80;96.40
47618;DHT22;33336;36.728;-4.414;2023-03-13T05:25:40;16.60;96.70
47618;DHT22;33336;36.728;-4.414;2023-03-13T05:30:46;16.80;96.60
47618;DHT22;33336;36.728;-4.414;2023-03-13T05:35:49;17.00;96.40
47618;DHT22;33336;36.728;-4.414;2023-03-13T05:40:53;17.10;96.20
47618;DHT22;33336;36.728;-4.414;2023-03-13T05:45:57;16.90;96.40
47618;DHT22;33336;36.728;-4.414;2023-03-13T05:51:01;16.70;96.60
47618;DHT22;33336;36.728;-4.414;2023-03-13T05:56:04;16.70;96.60
47618;DHT22;33336;36.728;-4.414;2023-03-13T06:01:11;16.70;96.50
47618;DHT22;33336;36.728;-4.414;2023-03-13T06:06:14;16.80;96.30
47618;DHT22;33336;36.728;-4.414;2023-03-13T06:11:18;17.00;96.00
47618;DHT22;33336;36.728;-4.414;2023-03-13T06:16:22;16.80;96.00
47618;DHT22;33336;36.728;-4.414;2023-03-13T06:21:27;16.90;95.90
47618;DHT22;33336;36.728;-4.414;2023-03-13T06:26:30;16.90;95.90
47618;DHT22;33336;36.728;-4.414;2023-03-13T06:31:35;16.80;95.70
47618;DHT22;33336;36.728;-4.414;2023-03-13T06:36:38;17.00;95.40
47618;DHT22;33336;36.728;-4.414;2023-03-13T06:41:41;16.90;95.50
47618;DHT22;33336;36.728;-4.414;2023-03-13T06:46:45;17.10;95.00
47618;DHT22;33336;36.728;-4.414;2023-03-13T06:51:48;17.20;94.60
47618;DHT22;33336;36.728;-4.414;2023-03-13T06:56:51;17.20;94.40
47618;DHT22;33336;36.728;-4.414;2023-03-13T07:01:56;17.20;94.50
47618;DHT22;33336;36.728;-4.414;2023-03-13T07:06:59;17.40;94.20
47618;DHT22;33336;36.728;-4.414;2023-03-13T07:12:03;17.40;94.10
47618;DHT22;33336;36.728;-4.414;2023-03-13T07:17:07;17.40;93.50
47618;DHT22;33336;36.728;-4.414;2023-03-13T07:22:10;17.50;93.50
47618;DHT22;33336;36.728;-4.414;2023-03-13T07:27:13;17.60;92.80
47618;DHT22;33336;36.728;-4.414;2023-03-13T07:32:19;17.60;92.70
47618;DHT22;33336;36.728;-4.414;2023-03-13T07:37:21;17.40;92.90
47618;DHT22;33336;36.728;-4.414;2023-03-13T07:42:24;17.40;92.50
47618;DHT22;33336;36.728;-4.414;2023-03-13T07:47:29;17.60;92.50
47618;DHT22;33336;36.728;-4.414;2023-03-13T07:52:32;17.90;92.00
47618;DHT22;33336;36.728;-4.414;2023-03-13T07:57:35;17.90;91.70
47618;DHT22;33336;36.728;-4.414;2023-03-13T08:02:40;18.10;91.50
47618;DHT22;33336;36.728;-4.414;2023-03-13T08:07:43;17.90;93.30
47618;DHT22;33336;36.728;-4.414;2023-03-13T08:12:48;17.80;94.30
47618;DHT22;33336;36.728;-4.414;2023-03-13T08:17:52;17.70;94.80
47618;DHT22;33336;36.728;-4.414;2023-03-13T08:22:56;17.70;94.90
47618;DHT22;33336;36.728;-4.414;2023-03-13T08:27:59;18.10;94.50
47618;DHT22;33336;36.728;-4.414;2023-03-13T08:33:04;18.60;93.40
47618;DHT22;33336;36.728;-4.414;2023-03-13T08:38:07;19.00;92.60
47618;DHT22;33336;36.728;-4.414;2023-03-13T08:43:10;19.20;92.10
47618;DHT22;33336;36.728;-4.414;2023-03-13T08:48:15;19.50;91.60
47618;DHT22;33336;36.728;-4.414;2023-03-13T08:53:18;19.50;90.90
47618;DHT22;33336;36.728;-4.414;2023-03-13T08:58:21;19.50;91.40
47618;DHT22;33336;36.728;-4.414;2023-03-13T09:03:26;19.40;92.20
47618;DHT22;33336;36.728;-4.414;2023-03-13T09:08:29;19.60;91.90
47618;DHT22;33336;36.728;-4.414;2023-03-13T09:13:34;19.70;91.90
47618;DHT22;33336;36.728;-4.414;2023-03-13T09:18:39;19.80;91.90
47618;DHT22;33336;36.728;-4.414;2023-03-13T09:23:42;19.90;91.80
47618;DHT22;33336;36.728;-4.414;2023-03-13T09:28:45;19.90;92.00
47618;DHT22;33336;36.728;-4.414;2023-03-13T09:33:50;20.00;92.00
47618;DHT22;33336;36.728;-4.414;2023-03-13T09:38:54;20.40;92.00
47618;DHT22;33336;36.728;-4.414;2023-03-13T09:44:04;20.60;91.40
47618;DHT22;33336;36.728;-4.414;2023-03-13T09:49:14;20.60;91.50
47618;DHT22;33336;36.728;-4.414;2023-03-13T09:54:23;21.00;91.30
47618;DHT22;33336;36.728;-4.414;2023-03-13T09:59:34;21.20;90.70
47618;DHT22;33336;36.728;-4.414;2023-03-13T10:04:44;21.30;90.30
47618;DHT22;33336;36.728;-4.414;2023-03-13T10:09:47;21.50;90.00
47618;DHT22;33336;36.728;-4.414;2023-03-13T10:14:57;21.50;89.20
47618;DHT22;33336;36.728;-4.414;2023-03-13T10:20:16;21.90;89.10
47618;DHT22;33336;36.728;-4.414;2023-03-13T10:25:29;22.40;87.80
47618;DHT22;33336;36.728;-4.414;2023-03-13T10:30:35;22.70;87.20
47618;DHT22;33336;36.728;-4.414;2023-03-13T10:35:42;22.60;90.00
47618;DHT22;33336;36.728;-4.414;2023-03-13T10:40:55;21.40;91.50
47618;DHT22;33336;36.728;-4.414;2023-03-13T10:45:59;21.00;93.40
47618;DHT22;33336;36.728;-4.414;2023-03-13T10:51:20;21.10;93.40
47618;DHT22;33336;36.728;-4.414;2023-03-13T10:56:28;20.80;92.40
47618;DHT22;33336;36.728;-4.414;2023-03-13T11:01:40;20.90;93.00
47618;DHT22;33336;36.728;-4.414;2023-03-13T11:06:51;20.90;93.20
47618;DHT22;33336;36.728;-4.414;2023-03-13T11:11:55;21.20;92.10
47618;DHT22;33336;36.728;-4.414;2023-03-13T11:17:03;22.10;92.30
47618;DHT22;33336;36.728;-4.414;2023-03-13T11:22:29;22.90;92.20
47618;DHT22;33336;36.728;-4.414;2023-03-13T11:27:40;23.00;93.60
47618;DHT22;33336;36.728;-4.414;2023-03-13T11:32:50;21.90;95.80
47618;DHT22;33336;36.728;-4.414;2023-03-13T11:37:56;22.70;94.80
47618;DHT22;33336;36.728;-4.414;2023-03-13T11:43:16;23.00;94.40
47618;DHT22;33336;36.728;-4.414;2023-03-13T11:48:41;22.70;93.80
47618;DHT22;33336;36.728;-4.414;2023-03-13T11:54:10;22.30;94.10
47618;DHT22;33336;36.728;-4.414;2023-03-13T11:59:31;22.50;94.30
47618;DHT22;33336;36.728;-4.414;2023-03-13T12:04:40;23.20;94.20
47618;DHT22;33336;36.728;-4.414;2023-03-13T12:09:50;23.80;93.80
47618;DHT22;33336;36.728;-4.414;2023-03-13T12:14:58;24.10;94.00
47618;DHT22;33336;36.728;-4.414;2023-03-13T12:20:05;24.20;93.60
47618;DHT22;33336;36.728;-4.414;2023-03-13T12:25:17;24.50;93.50
47618;DHT22;33336;36.728;-4.414;2023-03-13T12:30:30;23.90;92.60
47618;DHT22;33336;36.728;-4.414;2023-03-13T12:35:37;24.40;92.70
47618;DHT22;33336;36.728;-4.414;2023-03-13T12:40:48;24.20;91.20
47618;DHT22;33336;36.728;-4.414;2023-03-13T12:46:18;23.70;92.40
47618;DHT22;33336;36.728;-4.414;2023-03-13T12:51:35;23.90;92.40
47618;DHT22;33336;36.728;-4.414;2023-03-13T12:56:56;24.20;92.00
47618;DHT22;33336;36.728;-4.414;2023-03-13T13:02:13;23.70;91.30
47618;DHT22;33336;36.728;-4.414;2023-03-13T13:07:27;24.80;90.30
47618;DHT22;33336;36.728;-4.414;2023-03-13T13:12:32;24.80;90.40
47618;DHT22;33336;36.728;-4.414;2023-03-13T13:28:45;27.00;89.10
47618;DHT22;33336;36.728;-4.414;2023-03-13T13:33:48;25.70;83.30
47618;DHT22;33336;36.728;-4.414;2023-03-13T13:38:52;26.50;84.70
47618;DHT22;33336;36.728;-4.414;2023-03-13T13:44:21;27.20;85.50
47618;DHT22;33336;36.728;-4.414;2023-03-13T13:49:34;26.60;81.40
47618;DHT22;33336;36.728;-4.414;2023-03-13T13:54:53;26.80;84.50
47618;DHT22;33336;36.728;-4.414;2023-03-13T14:00:04;27.80;84.30
47618;DHT22;33336;36.728;-4.414;2023-03-13T14:05:20;27.40;85.80
47618;DHT22;33336;36.728;-4.414;2023-03-13T14:10:44;28.60;83.40
47618;DHT22;33336;36.728;-4.414;2023-03-13T14:15:51;28.50;80.40
47618;DHT22;33336;36.728;-4.414;2023-03-13T14:20:56;29.20;81.50
47618;DHT22;33336;36.728;-4.414;2023-03-13T14:26:09;30.10;80.10
47618;DHT22;33336;36.728;-4.414;2023-03-13T14:31:28;28.90;79.50
47618;DHT22;33336;36.728;-4.414;2023-03-13T14:36:45;28.90;80.00
47618;DHT22;33336;36.728;-4.414;2023-03-13T14:41:49;30.30;80.50
47618;DHT22;33336;36.728;-4.414;2023-03-13T14:46:58;31.10;77.80
47618;DHT22;33336;36.728;-4.414;2023-03-13T14:52:02;31.80;77.30
47618;DHT22;33336;36.728;-4.414;2023-03-13T14:57:19;32.20;73.70
47618;DHT22;33336;36.728;-4.414;2023-03-13T15:02:26;32.90;75.70
47618;DHT22;33336;36.728;-4.414;2023-03-13T15:07:37;34.30;74.70
47618;DHT22;33336;36.728;-4.414;2023-03-13T15:12:42;35.40;71.50
47618;DHT22;33336;36.728;-4.414;2023-03-13T15:17:48;36.30;70.70
47618;DHT22;33336;36.728;-4.414;2023-03-13T15:22:51;37.30;68.50
47618;DHT22;33336;36.728;-4.414;2023-03-13T15:27:54;38.70;67.50
47618;DHT22;33336;36.728;-4.414;2023-03-13T15:32:59;37.50;63.00
47618;DHT22;33336;36.728;-4.414;2023-03-13T15:38:02;38.00;61.00
47618;DHT22;33336;36.728;-4.414;2023-03-13T15:43:05;35.10;57.70
47618;DHT22;33336;36.728;-4.414;2023-03-13T15:48:15;35.30;56.60
47618;DHT22;33336;36.728;-4.414;2023-03-13T15:53:21;33.10;56.00
47618;DHT22;33336;36.728;-4.414;2023-03-13T15:58:25;34.70;56.90
47618;DHT22;33336;36.728;-4.414;2023-03-13T16:03:30;34.90;58.60
47618;DHT22;33336;36.728;-4.414;2023-03-13T16:08:33;33.90;56.30
47618;DHT22;33336;36.728;-4.414;2023-03-13T16:13:36;32.40;57.70
47618;DHT22;33336;36.728;-4.414;2023-03-13T16:18:41;33.50;57.10
47618;DHT22;33336;36.728;-4.414;2023-03-13T16:23:43;36.10;57.40
47618;DHT22;33336;36.728;-4.414;2023-03-13T16:28:48;35.30;57.20
47618;DHT22;33336;36.728;-4.414;2023-03-13T16:33:53;32.40;56.60
47618;DHT22;33336;36.728;-4.414;2023-03-13T16:38:58;33.30;56.20
47618;DHT22;33336;36.728;-4.414;2023-03-13T16:44:01;32.90;56.50
47618;DHT22;33336;36.728;-4.414;2023-03-13T16:49:10;32.00;55.90
47618;DHT22;33336;36.728;-4.414;2023-03-13T16:54:14;34.10;55.50
47618;DHT22;33336;36.728;-4.414;2023-03-13T16:59:17;33.10;54.80
47618;DHT22;33336;36.728;-4.414;2023-03-13T17:04:23;34.10;55.30
47618;DHT22;33336;36.728;-4.414;2023-03-13T17:09:26;35.60;55.00
47618;DHT22;33336;36.728;-4.414;2023-03-13T17:14:29;35.10;54.00
47618;DHT22;33336;36.728;-4.414;2023-03-13T17:19:34;33.20;56.30
47618;DHT22;33336;36.728;-4.414;2023-03-13T17:24:36;33.80;55.50
47618;DHT22;33336;36.728;-4.414;2023-03-13T17:29:39;34.00;55.80
47618;DHT22;33336;36.728;-4.414;2023-03-13T17:34:43;34.90;57.00
47618;DHT22;33336;36.728;-4.414;2023-03-13T17:39:48;34.50;56.50
47618;DHT22;33336;36.728;-4.414;2023-03-13T17:44:52;32.70;57.60
47618;DHT22;33336;36.728;-4.414;2023-03-13T17:49:57;32.90;58.20
47618;DHT22;33336;36.728;-4.414;2023-03-13T17:54:59;33.80;58.20
47618;DHT22;33336;36.728;-4.414;2023-03-13T18:00:06;33.60;58.40
47618;DHT22;33336;36.728;-4.414;2023-03-13T18:05:15;31.40;59.00
47618;DHT22;33336;36.728;-4.414;2023-03-13T18:10:20;30.50;61.40
47618;DHT22;33336;36.728;-4.414;2023-03-13T18:15:25;29.90;62.20
47618;DHT22;33336;36.728;-4.414;2023-03-13T18:20:31;28.90;63.00
47618;DHT22;33336;36.728;-4.414;2023-03-13T18:25:34;28.20;64.40
47618;DHT22;33336;36.728;-4.414;2023-03-13T18:30:38;27.70;65.50
47618;DHT22;33336;36.728;-4.414;2023-03-13T18:35:42;26.60;67.40
47618;DHT22;33336;36.728;-4.414;2023-03-13T18:40:45;25.80;69.00
47618;DHT22;33336;36.728;-4.414;2023-03-13T18:45:48;25.60;69.60
47618;DHT22;33336;36.728;-4.414;2023-03-13T18:50:53;25.40;70.40
47618;DHT22;33336;36.728;-4.414;2023-03-13T18:56:03;25.30;71.20
47618;DHT22;33336;36.728;-4.414;2023-03-13T19:01:10;25.30;71.00
47618;DHT22;33336;36.728;-4.414;2023-03-13T19:06:20;25.20;71.30
47618;DHT22;33336;36.728;-4.414;2023-03-13T19:11:26;24.80;72.50
47618;DHT22;33336;36.728;-4.414;2023-03-13T19:16:31;24.30;74.40
47618;DHT22;33336;36.728;-4.414;2023-03-13T19:21:40;24.50;74.10
47618;DHT22;33336;36.728;-4.414;2023-03-13T19:26:45;23.90;76.20
47618;DHT22;33336;36.728;-4.414;2023-03-13T19:31:48;23.90;76.10
47618;DHT22;33336;36.728;-4.414;2023-03-13T19:36:53;24.20;76.10
47618;DHT22;33336;36.728;-4.414;2023-03-13T19:41:56;23.80;77.20
47618;DHT22;33336;36.728;-4.414;2023-03-13T19:46:59;23.80;77.60
47618;DHT22;33336;36.728;-4.414;2023-03-13T19:52:04;23.60;78.20
47618;DHT22;33336;36.728;-4.414;2023-03-13T19:57:09;23.70;78.10
47618;DHT22;33336;36.728;-4.414;2023-03-13T20:02:12;23.60;78.70
47618;DHT22;33336;36.728;-4.414;2023-03-13T20:07:17;23.40;79.40
47618;DHT22;33336;36.728;-4.414;2023-03-13T20:12:23;23.30;79.60
47618;DHT22;33336;36.728;-4.414;2023-03-13T20:17:26;23.20;80.10
47618;DHT22;33336;36.728;-4.414;2023-03-13T20:22:31;23.20;79.60
47618;DHT22;33336;36.728;-4.414;2023-03-13T20:27:33;22.90;80.50
47618;DHT22;33336;36.728;-4.414;2023-03-13T20:32:39;22.70;81.20
47618;DHT22;33336;36.728;-4.414;2023-03-13T20:37:43;22.50;81.90
47618;DHT22;33336;36.728;-4.414;2023-03-13T20:42:47;22.30;82.60
47618;DHT22;33336;36.728;-4.414;2023-03-13T20:47:51;22.60;81.80
47618;DHT22;33336;36.728;-4.414;2023-03-13T20:52:57;22.50;82.80
47618;DHT22;33336;36.728;-4.414;2023-03-13T20:57:59;22.70;82.60
47618;DHT22;33336;36.728;-4.414;2023-03-13T21:03:03;22.30;84.40
47618;DHT22;33336;36.728;-4.414;2023-03-13T21:08:08;22.00;85.90
47618;DHT22;33336;36.728;-4.414;2023-03-13T21:13:11;21.70;87.40
47618;DHT22;33336;36.728;-4.414;2023-03-13T21:18:14;21.60;88.20
47618;DHT22;33336;36.728;-4.414;2023-03-13T21:23:25;21.70;87.90
47618;DHT22;33336;36.728;-4.414;2023-03-13T21:28:46;21.50;88.80
47618;DHT22;33336;36.728;-4.414;2023-03-13T21:33:54;21.40;88.90
47618;DHT22;33336;36.728;-4.414;2023-03-13T21:38:58;21.60;89.00
47618;DHT22;33336;36.728;-4.414;2023-03-13T21:44:02;21.70;88.50
47618;DHT22;33336;36.728;-4.414;2023-03-13T21:49:05;21.20;90.00
47618;DHT22;33336;36.728;-4.414;2023-03-13T21:54:11;20.90;91.00
47618;DHT22;33336;36.728;-4.414;2023-03-13T21:59:13;21.00;90.90
47618;DHT22;33336;36.728;-4.414;2023-03-13T22:04:26;21.00;91.00
47618;DHT22;33336;36.728;-4.414;2023-03-13T22:09:30;20.50;91.60
47618;DHT22;33336;36.728;-4.414;2023-03-13T22:14:34;20.70;91.30
47618;DHT22;33336;36.728;-4.414;2023-03-13T22:19:37;20.40;91.80
47618;DHT22;33336;36.728;-4.414;2023-03-13T22:24:46;20.30;92.20
47618;DHT22;33336;36.728;-4.414;2023-03-13T22:29:49;20.20;92.50
47618;DHT22;33336;36.728;-4.414;2023-03-13T22:34:53;20.30;92.40
47618;DHT22;33336;36.728;-4.414;2023-03-13T22:39:57;20.20;92.60
47618;DHT22;33336;36.728;-4.414;2023-03-13T22:45:01;20.10;93.00
47618;DHT22;33336;36.728;-4.414;2023-03-13T22:50:05;20.10;93.00
47618;DHT22;33336;36.728;-4.414;2023-03-13T22:55:10;19.80;93.20
47618;DHT22;33336;36.728;-4.414;2023-03-13T23:00:14;19.90;93.10
47618;DHT22;33336;36.728;-4.414;2023-03-13T23:05:17;20.00;93.10
47618;DHT22;33336;36.728;-4.414;2023-03-13T23:10:21;20.00;93.00
47618;DHT22;33336;36.728;-4.414;2023-03-13T23:15:25;19.70;93.20
47618;DHT22;33336;36.728;-4.414;2023-03-13T23:20:28;19.80;93.30
47618;DHT22;33336;36.728;-4.414;2023-03-13T23:25:36;19.70;93.20
47618;DHT22;33336;36.728;-4.414;2023-03-13T23:30:39;19.60;93.40
47618;DHT22;33336;36.728;-4.414;2023-03-13T23:35:43;19.50;93.50
47618;DHT22;33336;36.728;-4.414;2023-03-13T23:40:48;19.50;93.30
47618;DHT22;33336;36.728;-4.414;2023-03-13T23:45:54;19.50;93.50
47618;DHT22;33336;36.728;-4.414;2023-03-13T23:50:57;19.20;94.00
47618;DHT22;33336;36.728;-4.414;2023-03-13T23:56:01;19.00;94.10
